sensor_id;sensor_type;location;lat;lon;timestamp;pressure;altitude;pressure_sealevel;temperature;humidity
73338;BME280;61575;49.908;35.556;2022-09-24T00:01:26;98665.59;;;9.68;82.50
73338;BME280;61575;49.908;35.556;2022-09-24T00:04:28;98662.59;;;9.63;82.37
73338;BME280;61575;49.908;35.556;2022-09-24T00:07:31;98655.59;;;9.62;82.49
73338;BME280;61575;49.908;35.556;2022-09-24T00:10:37;98654.75;;;9.61;82.44
73338;BME280;61575;49.908;35.556;2022-09-24T00:13:40;98654.09;;;9.59;82.51
73338;BME280;61575;49.908;35.556;2022-09-24T00:16:43;98647.25;;;9.57;82.58
73338;BME280;61575;49.908;35.556;2022-09-24T00:19:46;98650.78;;;9.57;82.72
73338;BME280;61575;49.908;35.556;2022-09-24T00:22:47;98645.59;;;9.56;82.89
73338;BME280;61575;49.908;35.556;2022-09-24T00:25:49;98644.94;;;9.54;83.07
73338;BME280;61575;49.908;35.556;2022-09-24T00:29:12;98648.44;;;9.54;83.15
73338;BME280;61575;49.908;35.556;2022-09-24T00:32:14;98637.75;;;9.54;83.29
73338;BME280;61575;49.908;35.556;2022-09-24T00:35:16;98642.63;;;9.51;83.75
73338;BME280;61575;49.908;35.556;2022-09-24T00:38:19;98644.28;;;9.52;84.00
73338;BME280;61575;49.908;35.556;2022-09-24T00:41:25;98648.81;;;9.51;83.91
73338;BME280;61575;49.908;35.556;2022-09-24T00:44:47;98644.16;;;9.45;84.66
73338;BME280;61575;49.908;35.556;2022-09-24T00:47:51;98638.09;;;9.51;84.27
73338;BME280;61575;49.908;35.556;2022-09-24T00:50:54;98640.66;;;9.45;84.84
73338;BME280;61575;49.908;35.556;2022-09-24T00:54:00;98637.28;;;9.51;84.14
73338;BME280;61575;49.908;35.556;2022-09-24T00:57:05;98641.44;;;9.53;83.92
73338;BME280;61575;49.908;35.556;2022-09-24T01:00:08;98637.94;;;9.53;83.71
73338;BME280;61575;49.908;35.556;2022-09-24T01:03:15;98630.72;;;9.53;83.67
73338;BME280;61575;49.908;35.556;2022-09-24T01:06:17;98634.78;;;9.49;83.44
73338;BME280;61575;49.908;35.556;2022-09-24T01:09:20;98632.28;;;9.48;83.50
73338;BME280;61575;49.908;35.556;2022-09-24T01:12:25;98633.47;;;9.45;83.58
73338;BME280;61575;49.908;35.556;2022-09-24T01:15:39;98634.81;;;9.41;83.38
73338;BME280;61575;49.908;35.556;2022-09-24T01:18:48;98626.97;;;9.39;83.13
73338;BME280;61575;49.908;35.556;2022-09-24T01:22:03;98626.50;;;9.36;83.03
73338;BME280;61575;49.908;35.556;2022-09-24T01:38:40;98624.75;;;9.20;83.00
73338;BME280;61575;49.908;35.556;2022-09-24T01:41:45;98625.28;;;9.16;82.71
73338;BME280;61575;49.908;35.556;2022-09-24T01:44:49;98622.13;;;9.12;82.78
73338;BME280;61575;49.908;35.556;2022-09-24T01:47:51;98624.50;;;9.07;82.58
73338;BME280;61575;49.908;35.556;2022-09-24T01:50:57;98625.03;;;9.02;82.98
73338;BME280;61575;49.908;35.556;2022-09-24T01:54:04;98624.34;;;9.00;82.99
73338;BME280;61575;49.908;35.556;2022-09-24T01:57:19;98628.22;;;8.98;83.42
73338;BME280;61575;49.908;35.556;2022-09-24T02:00:23;98628.72;;;8.93;83.18
73338;BME280;61575;49.908;35.556;2022-09-24T02:03:28;98636.28;;;8.90;83.06
73338;BME280;61575;49.908;35.556;2022-09-24T02:06:40;98635.78;;;8.86;82.74
73338;BME280;61575;49.908;35.556;2022-09-24T02:09:43;98629.94;;;8.83;82.63
73338;BME280;61575;49.908;35.556;2022-09-24T02:12:49;98628.47;;;8.80;82.62
73338;BME280;61575;49.908;35.556;2022-09-24T02:15:58;98627.66;;;8.71;82.42
73338;BME280;61575;49.908;35.556;2022-09-24T02:19:04;98624.00;;;8.64;82.34
73338;BME280;61575;49.908;35.556;2022-09-24T02:22:09;98625.19;;;8.62;82.22
73338;BME280;61575;49.908;35.556;2022-09-24T02:25:17;98630.22;;;8.57;82.29
73338;BME280;61575;49.908;35.556;2022-09-24T02:28:20;98624.56;;;8.52;82.52
73338;BME280;61575;49.908;35.556;2022-09-24T02:31:26;98635.06;;;8.53;82.59
73338;BME280;61575;49.908;35.556;2022-09-24T02:34:33;98637.41;;;8.56;82.87
73338;BME280;61575;49.908;35.556;2022-09-24T02:37:39;98634.22;;;8.61;83.25
73338;BME280;61575;49.908;35.556;2022-09-24T02:40:42;98633.88;;;8.64;83.45
73338;BME280;61575;49.908;35.556;2022-09-24T02:43:45;98642.38;;;8.67;83.65
73338;BME280;61575;49.908;35.556;2022-09-24T02:46:48;98649.03;;;8.71;83.74
73338;BME280;61575;49.908;35.556;2022-09-24T02:49:51;98646.84;;;8.75;83.83
73338;BME280;61575;49.908;35.556;2022-09-24T02:52:53;98653.69;;;8.77;83.79
73338;BME280;61575;49.908;35.556;2022-09-24T02:55:55;98652.69;;;8.79;84.40
73338;BME280;61575;49.908;35.556;2022-09-24T02:58:58;98649.50;;;8.83;84.72
73338;BME280;61575;49.908;35.556;2022-09-24T03:02:01;98654.31;;;8.88;84.72
73338;BME280;61575;49.908;35.556;2022-09-24T03:05:04;98662.81;;;8.91;85.07
73338;BME280;61575;49.908;35.556;2022-09-24T03:08:06;98655.28;;;8.95;84.89
73338;BME280;61575;49.908;35.556;2022-09-24T03:11:09;98645.25;;;8.97;85.27
73338;BME280;61575;49.908;35.556;2022-09-24T03:14:18;98647.41;;;9.01;84.97
73338;BME280;61575;49.908;35.556;2022-09-24T03:17:20;98640.88;;;9.04;84.96
73338;BME280;61575;49.908;35.556;2022-09-24T03:20:21;98637.69;;;9.08;85.05
73338;BME280;61575;49.908;35.556;2022-09-24T03:23:24;98646.56;;;9.01;86.09
73338;BME280;61575;49.908;35.556;2022-09-24T03:26:26;98642.19;;;9.08;85.59
73338;BME280;61575;49.908;35.556;2022-09-24T03:29:28;98646.19;;;9.12;85.21
73338;BME280;61575;49.908;35.556;2022-09-24T03:32:49;98642.81;;;9.18;85.54
73338;BME280;61575;49.908;35.556;2022-09-24T03:35:55;98635.44;;;9.20;85.51
73338;BME280;61575;49.908;35.556;2022-09-24T03:38:57;98638.44;;;9.25;85.42
73338;BME280;61575;49.908;35.556;2022-09-24T03:41:59;98631.91;;;9.28;85.72
73338;BME280;61575;49.908;35.556;2022-09-24T03:45:00;98636.91;;;9.31;85.58
73338;BME280;61575;49.908;35.556;2022-09-24T03:48:02;98642.78;;;9.26;86.17
73338;BME280;61575;49.908;35.556;2022-09-24T03:51:09;98638.56;;;9.32;85.96
73338;BME280;61575;49.908;35.556;2022-09-24T03:54:11;98639.88;;;9.36;85.71
73338;BME280;61575;49.908;35.556;2022-09-24T03:57:13;98649.38;;;9.38;85.91
73338;BME280;61575;49.908;35.556;2022-09-24T04:00:15;98645.34;;;9.43;85.75
73338;BME280;61575;49.908;35.556;2022-09-24T04:03:17;98649.16;;;9.48;85.66
73338;BME280;61575;49.908;35.556;2022-09-24T04:06:19;98648.63;;;9.53;85.60
73338;BME280;61575;49.908;35.556;2022-09-24T04:09:26;98645.59;;;9.56;85.54
73338;BME280;61575;49.908;35.556;2022-09-24T04:12:28;98649.59;;;9.60;85.46
73338;BME280;61575;49.908;35.556;2022-09-24T04:15:30;98652.91;;;9.62;85.49
73338;BME280;61575;49.908;35.556;2022-09-24T04:18:33;98645.53;;;9.64;85.73
73338;BME280;61575;49.908;35.556;2022-09-24T04:21:39;98636.13;;;9.68;85.40
73338;BME280;61575;49.908;35.556;2022-09-24T04:24:41;98649.81;;;9.73;85.61
73338;BME280;61575;49.908;35.556;2022-09-24T04:27:44;98649.28;;;9.78;85.44
73338;BME280;61575;49.908;35.556;2022-09-24T04:30:46;98653.44;;;9.80;85.61
73338;BME280;61575;49.908;35.556;2022-09-24T04:33:47;98652.06;;;9.84;85.64
73338;BME280;61575;49.908;35.556;2022-09-24T04:36:49;98658.75;;;9.88;85.60
73338;BME280;61575;49.908;35.556;2022-09-24T04:39:51;98653.69;;;9.93;85.44
73338;BME280;61575;49.908;35.556;2022-09-24T04:42:53;98647.59;;;9.99;85.44
73338;BME280;61575;49.908;35.556;2022-09-24T04:45:56;98654.91;;;10.05;85.53
73338;BME280;61575;49.908;35.556;2022-09-24T04:49:00;98651.88;;;10.09;85.49
73338;BME280;61575;49.908;35.556;2022-09-24T04:52:02;98654.38;;;10.10;85.41
73338;BME280;61575;49.908;35.556;2022-09-24T04:55:06;98660.38;;;10.12;85.31
73338;BME280;61575;49.908;35.556;2022-09-24T04:58:08;98651.16;;;10.15;85.34
73338;BME280;61575;49.908;35.556;2022-09-24T05:01:10;98652.81;;;10.16;85.48
73338;BME280;61575;49.908;35.556;2022-09-24T05:04:14;98651.63;;;10.18;85.49
73338;BME280;61575;49.908;35.556;2022-09-24T05:07:15;98651.28;;;10.21;85.35
73338;BME280;61575;49.908;35.556;2022-09-24T05:10:17;98643.91;;;10.23;85.34
73338;BME280;61575;49.908;35.556;2022-09-24T05:13:19;98655.91;;;10.27;85.42
73338;BME280;61575;49.908;35.556;2022-09-24T05:16:22;98651.84;;;10.31;85.25
73338;BME280;61575;49.908;35.556;2022-09-24T05:19:24;98651.31;;;10.36;85.52
73338;BME280;61575;49.908;35.556;2022-09-24T05:22:25;98653.22;;;10.42;85.41
73338;BME280;61575;49.908;35.556;2022-09-24T05:25:28;98661.44;;;10.41;85.47
73338;BME280;61575;49.908;35.556;2022-09-24T05:28:30;98664.88;;;10.49;85.48
73338;BME280;61575;49.908;35.556;2022-09-24T05:31:33;98663.59;;;10.45;85.44
73338;BME280;61575;49.908;35.556;2022-09-24T05:34:35;98660.72;;;10.47;85.55
73338;BME280;61575;49.908;35.556;2022-09-24T05:37:37;98660.34;;;10.50;85.57
73338;BME280;61575;49.908;35.556;2022-09-24T05:40:41;98661.94;;;10.59;85.65
73338;BME280;61575;49.908;35.556;2022-09-24T05:43:48;98656.47;;;10.67;85.56
73338;BME280;61575;49.908;35.556;2022-09-24T05:46:51;98655.09;;;10.71;85.89
73338;BME280;61575;49.908;35.556;2022-09-24T05:49:53;98659.63;;;10.85;85.93
73338;BME280;61575;49.908;35.556;2022-09-24T05:52:56;98667.47;;;10.87;85.56
73338;BME280;61575;49.908;35.556;2022-09-24T05:55:57;98669.25;;;10.94;85.65
73338;BME280;61575;49.908;35.556;2022-09-24T05:58:59;98669.78;;;11.04;85.45
73338;BME280;61575;49.908;35.556;2022-09-24T06:02:02;98666.44;;;11.17;85.34
73338;BME280;61575;49.908;35.556;2022-09-24T06:05:06;98661.22;;;11.30;85.14
73338;BME280;61575;49.908;35.556;2022-09-24T06:08:08;98669.16;;;11.39;85.16
73338;BME280;61575;49.908;35.556;2022-09-24T06:11:10;98672.75;;;11.46;84.69
73338;BME280;61575;49.908;35.556;2022-09-24T06:14:13;98675.44;;;11.46;84.83
73338;BME280;61575;49.908;35.556;2022-09-24T06:17:15;98663.84;;;11.60;84.58
73338;BME280;61575;49.908;35.556;2022-09-24T06:20:17;98664.28;;;11.63;84.49
73338;BME280;61575;49.908;35.556;2022-09-24T06:23:19;98668.81;;;11.63;84.27
73338;BME280;61575;49.908;35.556;2022-09-24T06:26:20;98665.38;;;11.69;84.26
73338;BME280;61575;49.908;35.556;2022-09-24T06:29:22;98672.31;;;11.78;83.93
73338;BME280;61575;49.908;35.556;2022-09-24T06:32:25;98678.66;;;11.92;84.00
73338;BME280;61575;49.908;35.556;2022-09-24T06:35:27;98680.56;;;11.98;83.83
73338;BME280;61575;49.908;35.556;2022-09-24T06:38:29;98674.88;;;12.08;83.48
73338;BME280;61575;49.908;35.556;2022-09-24T06:41:31;98669.16;;;12.17;83.39
73338;BME280;61575;49.908;35.556;2022-09-24T06:44:34;98680.16;;;12.22;83.24
73338;BME280;61575;49.908;35.556;2022-09-24T06:47:35;98670.63;;;12.20;82.60
73338;BME280;61575;49.908;35.556;2022-09-24T06:50:40;98682.72;;;12.30;82.77
73338;BME280;61575;49.908;35.556;2022-09-24T06:53:42;98675.72;;;12.36;82.65
73338;BME280;61575;49.908;35.556;2022-09-24T06:56:44;98674.25;;;12.33;82.35
73338;BME280;61575;49.908;35.556;2022-09-24T06:59:46;98680.91;;;12.38;82.31
73338;BME280;61575;49.908;35.556;2022-09-24T07:02:50;98681.16;;;12.43;81.99
73338;BME280;61575;49.908;35.556;2022-09-24T07:05:52;98682.38;;;12.40;81.74
73338;BME280;61575;49.908;35.556;2022-09-24T07:09:00;98677.78;;;12.34;81.38
73338;BME280;61575;49.908;35.556;2022-09-24T07:12:02;98677.16;;;12.32;81.56
73338;BME280;61575;49.908;35.556;2022-09-24T07:15:07;98681.50;;;12.33;81.38
73338;BME280;61575;49.908;35.556;2022-09-24T07:18:09;98680.22;;;12.29;80.79
73338;BME280;61575;49.908;35.556;2022-09-24T07:21:11;98683.16;;;12.34;81.18
73338;BME280;61575;49.908;35.556;2022-09-24T07:24:13;98684.56;;;12.30;81.38
73338;BME280;61575;49.908;35.556;2022-09-24T07:27:15;98684.81;;;12.35;81.42
73338;BME280;61575;49.908;35.556;2022-09-24T07:30:17;98690.25;;;12.42;81.41
73338;BME280;61575;49.908;35.556;2022-09-24T07:33:19;98682.00;;;12.43;81.02
73338;BME280;61575;49.908;35.556;2022-09-24T07:36:20;98681.47;;;12.54;81.04
73338;BME280;61575;49.908;35.556;2022-09-24T07:39:23;98676.41;;;12.73;80.71
73338;BME280;61575;49.908;35.556;2022-09-24T07:42:25;98684.59;;;12.92;80.92
73338;BME280;61575;49.908;35.556;2022-09-24T07:45:28;98679.50;;;13.04;80.35
73338;BME280;61575;49.908;35.556;2022-09-24T07:48:30;98683.31;;;13.16;79.84
73338;BME280;61575;49.908;35.556;2022-09-24T07:51:32;98670.13;;;13.35;79.53
73338;BME280;61575;49.908;35.556;2022-09-24T07:54:34;98679.34;;;13.60;79.13
73338;BME280;61575;49.908;35.556;2022-09-24T07:57:36;98673.38;;;13.84;78.71
73338;BME280;61575;49.908;35.556;2022-09-24T08:00:38;98674.47;;;14.10;77.35
73338;BME280;61575;49.908;35.556;2022-09-24T08:03:40;98667.84;;;14.25;73.60
73338;BME280;61575;49.908;35.556;2022-09-24T08:06:42;98665.78;;;14.54;74.87
73338;BME280;61575;49.908;35.556;2022-09-24T08:09:48;98668.28;;;14.49;72.05
73338;BME280;61575;49.908;35.556;2022-09-24T08:12:50;98668.91;;;14.44;73.43
73338;BME280;61575;49.908;35.556;2022-09-24T08:15:56;98663.28;;;14.52;73.27
73338;BME280;61575;49.908;35.556;2022-09-24T08:19:00;98662.84;;;14.16;73.27
73338;BME280;61575;49.908;35.556;2022-09-24T08:22:02;98664.34;;;14.45;73.05
73338;BME280;61575;49.908;35.556;2022-09-24T08:25:06;98658.72;;;14.46;73.06
73338;BME280;61575;49.908;35.556;2022-09-24T08:28:08;98662.03;;;14.55;72.94
73338;BME280;61575;49.908;35.556;2022-09-24T08:31:12;98665.78;;;14.54;72.58
73338;BME280;61575;49.908;35.556;2022-09-24T08:34:14;98670.53;;;14.65;72.14
73338;BME280;61575;49.908;35.556;2022-09-24T08:37:16;98667.84;;;14.72;72.36
73338;BME280;61575;49.908;35.556;2022-09-24T08:40:23;98665.31;;;14.83;72.02
73338;BME280;61575;49.908;35.556;2022-09-24T08:46:52;98662.66;;;14.64;71.69
73338;BME280;61575;49.908;35.556;2022-09-24T08:50:23;98665.75;;;14.67;69.58
73338;BME280;61575;49.908;35.556;2022-09-24T08:53:39;98656.16;;;14.91;70.96
73338;BME280;61575;49.908;35.556;2022-09-24T08:56:44;98657.22;;;14.90;70.90
73338;BME280;61575;49.908;35.556;2022-09-24T08:59:49;98661.16;;;14.87;70.97
73338;BME280;61575;49.908;35.556;2022-09-24T09:03:07;98666.16;;;14.71;72.21
73338;BME280;61575;49.908;35.556;2022-09-24T09:10:00;98664.50;;;14.23;74.27
73338;BME280;61575;49.908;35.556;2022-09-24T09:13:24;98661.00;;;14.23;75.26
73338;BME280;61575;49.908;35.556;2022-09-24T09:16:33;98663.91;;;14.28;75.87
73338;BME280;61575;49.908;35.556;2022-09-24T09:19:39;98654.34;;;14.25;76.46
73338;BME280;61575;49.908;35.556;2022-09-24T09:22:46;98657.28;;;14.50;76.24
73338;BME280;61575;49.908;35.556;2022-09-24T09:25:57;98650.22;;;14.63;76.29
73338;BME280;61575;49.908;35.556;2022-09-24T09:29:00;98655.19;;;14.59;75.49
73338;BME280;61575;49.908;35.556;2022-09-24T09:32:07;98646.28;;;14.58;74.99
73338;BME280;61575;49.908;35.556;2022-09-24T09:35:21;98650.44;;;14.54;74.88
73338;BME280;61575;49.908;35.556;2022-09-24T09:38:33;98651.41;;;14.80;74.53
73338;BME280;61575;49.908;35.556;2022-09-24T09:41:52;98649.25;;;15.15;74.89
73338;BME280;61575;49.908;35.556;2022-09-24T09:44:55;98642.72;;;15.36;73.58
73338;BME280;61575;49.908;35.556;2022-09-24T09:47:59;98640.63;;;15.38;72.54
73338;BME280;61575;49.908;35.556;2022-09-24T09:51:05;98632.63;;;15.11;70.65
73338;BME280;61575;49.908;35.556;2022-09-24T09:54:07;98644.06;;;15.13;68.76
73338;BME280;61575;49.908;35.556;2022-09-24T09:57:15;98638.84;;;15.18;69.44
73338;BME280;61575;49.908;35.556;2022-09-24T10:00:24;98649.19;;;15.28;68.58
73338;BME280;61575;49.908;35.556;2022-09-24T10:03:30;98648.25;;;14.96;67.10
73338;BME280;61575;49.908;35.556;2022-09-24T10:06:34;98642.66;;;14.91;67.60
73338;BME280;61575;49.908;35.556;2022-09-24T10:09:37;98647.25;;;14.90;68.51
73338;BME280;61575;49.908;35.556;2022-09-24T10:12:40;98641.88;;;14.77;68.33
73338;BME280;61575;49.908;35.556;2022-09-24T10:15:56;98639.50;;;15.07;68.48
73338;BME280;61575;49.908;35.556;2022-09-24T10:18:59;98627.84;;;15.13;68.05
73338;BME280;61575;49.908;35.556;2022-09-24T10:22:18;98634.00;;;15.34;66.84
73338;BME280;61575;49.908;35.556;2022-09-24T10:25:24;98627.66;;;15.15;65.95
73338;BME280;61575;49.908;35.556;2022-09-24T10:28:27;98637.72;;;15.39;65.67
73338;BME280;61575;49.908;35.556;2022-09-24T10:31:49;98641.84;;;15.42;65.20
73338;BME280;61575;49.908;35.556;2022-09-24T10:35:02;98628.28;;;15.55;64.25
73338;BME280;61575;49.908;35.556;2022-09-24T10:38:18;98627.75;;;15.71;61.51
73338;BME280;61575;49.908;35.556;2022-09-24T10:41:27;98616.69;;;15.79;61.85
73338;BME280;61575;49.908;35.556;2022-09-24T10:44:34;98625.06;;;15.71;62.36
73338;BME280;61575;49.908;35.556;2022-09-24T10:54:21;98642.47;;;14.93;62.48
73338;BME280;61575;49.908;35.556;2022-09-24T11:01:17;98639.19;;;14.71;65.34
73338;BME280;61575;49.908;35.556;2022-09-24T11:08:07;98629.84;;;14.73;66.25
73338;BME280;61575;49.908;35.556;2022-09-24T11:21:26;98635.63;;;14.83;64.66
73338;BME280;61575;49.908;35.556;2022-09-24T11:55:33;98651.38;;;14.93;65.40
73338;BME280;61575;49.908;35.556;2022-09-24T11:58:15;98656.09;;;15.11;64.44
73338;BME280;61575;49.908;35.556;2022-09-24T12:01:32;98659.34;;;15.33;60.79
73338;BME280;61575;49.908;35.556;2022-09-24T12:08:16;98659.16;;;15.72;58.50
73338;BME280;61575;49.908;35.556;2022-09-24T12:11:29;98671.72;;;15.60;56.98
73338;BME280;61575;49.908;35.556;2022-09-24T12:15:02;98664.38;;;15.22;56.84
73338;BME280;61575;49.908;35.556;2022-09-24T12:18:11;98662.81;;;14.95;58.19
73338;BME280;61575;49.908;35.556;2022-09-24T12:24:33;98663.09;;;14.54;58.72
73338;BME280;61575;49.908;35.556;2022-09-24T12:27:37;98658.13;;;14.44;58.61
73338;BME280;61575;49.908;35.556;2022-09-24T12:30:44;98647.53;;;14.43;58.99
73338;BME280;61575;49.908;35.556;2022-09-24T12:34:25;98642.75;;;14.45;58.65
73338;BME280;61575;49.908;35.556;2022-09-24T12:37:37;98631.13;;;14.57;58.19
73338;BME280;61575;49.908;35.556;2022-09-24T12:47:24;98639.34;;;14.89;57.05
73338;BME280;61575;49.908;35.556;2022-09-24T12:50:32;98637.31;;;14.78;57.10
73338;BME280;61575;49.908;35.556;2022-09-24T14:51:39;98676.16;;;11.54;85.20
73338;BME280;61575;49.908;35.556;2022-09-24T14:55:11;98683.25;;;11.98;82.16
73338;BME280;61575;49.908;35.556;2022-09-24T15:23:32;98689.13;;;10.85;87.27
73338;BME280;61575;49.908;35.556;2022-09-24T15:26:36;98698.97;;;11.29;84.65
73338;BME280;61575;49.908;35.556;2022-09-24T15:29:40;98707.53;;;11.54;83.22
73338;BME280;61575;49.908;35.556;2022-09-24T15:32:42;98721.91;;;11.46;82.99
73338;BME280;61575;49.908;35.556;2022-09-24T15:35:45;98728.28;;;11.45;82.50
73338;BME280;61575;49.908;35.556;2022-09-24T15:38:49;98729.41;;;11.51;82.08
73338;BME280;61575;49.908;35.556;2022-09-24T15:41:51;98721.91;;;11.46;82.02
73338;BME280;61575;49.908;35.556;2022-09-24T15:45:08;98734.03;;;11.42;82.06
73338;BME280;61575;49.908;35.556;2022-09-24T15:48:11;98724.34;;;11.26;81.89
73338;BME280;61575;49.908;35.556;2022-09-24T15:51:17;98721.66;;;11.26;81.66
73338;BME280;61575;49.908;35.556;2022-09-24T15:54:20;98727.75;;;11.35;81.17
73338;BME280;61575;49.908;35.556;2022-09-24T15:57:24;98728.41;;;11.37;80.68
73338;BME280;61575;49.908;35.556;2022-09-24T16:00:31;98725.41;;;11.47;80.41
73338;BME280;61575;49.908;35.556;2022-09-24T16:03:35;98726.06;;;11.49;80.32
73338;BME280;61575;49.908;35.556;2022-09-24T16:06:37;98725.50;;;11.53;80.36
73338;BME280;61575;49.908;35.556;2022-09-24T16:09:39;98728.00;;;11.55;80.52
73338;BME280;61575;49.908;35.556;2022-09-24T16:12:42;98731.50;;;11.55;80.39
73338;BME280;61575;49.908;35.556;2022-09-24T16:15:44;98729.41;;;11.51;80.20
73338;BME280;61575;49.908;35.556;2022-09-24T16:18:48;98731.81;;;11.46;80.32
73338;BME280;61575;49.908;35.556;2022-09-24T16:21:50;98729.69;;;11.41;80.36
73338;BME280;61575;49.908;35.556;2022-09-24T16:24:57;98744.69;;;11.35;80.23
73338;BME280;61575;49.908;35.556;2022-09-24T16:28:04;98750.59;;;11.31;79.96
73338;BME280;61575;49.908;35.556;2022-09-24T16:31:09;98750.97;;;11.28;80.06
73338;BME280;61575;49.908;35.556;2022-09-24T16:34:12;98744.69;;;11.21;79.85
73338;BME280;61575;49.908;35.556;2022-09-24T16:37:16;98747.56;;;11.19;79.81
73338;BME280;61575;49.908;35.556;2022-09-24T16:40:20;98748.50;;;11.12;79.68
73338;BME280;61575;49.908;35.556;2022-09-24T16:43:25;98750.81;;;11.00;79.62
73338;BME280;61575;49.908;35.556;2022-09-24T16:46:28;98743.13;;;10.97;79.44
73338;BME280;61575;49.908;35.556;2022-09-24T16:49:32;98746.25;;;10.86;79.46
73338;BME280;61575;49.908;35.556;2022-09-24T16:52:38;98747.19;;;10.78;79.37
73338;BME280;61575;49.908;35.556;2022-09-24T16:55:41;98753.44;;;10.70;79.27
73338;BME280;61575;49.908;35.556;2022-09-24T16:58:46;98752.78;;;10.68;79.37
73338;BME280;61575;49.908;35.556;2022-09-24T17:01:48;98749.00;;;10.63;79.33
73338;BME280;61575;49.908;35.556;2022-09-24T17:04:51;98757.47;;;10.52;79.47
73338;BME280;61575;49.908;35.556;2022-09-24T17:07:55;98760.88;;;10.46;79.40
73338;BME280;61575;49.908;35.556;2022-09-24T17:10:56;98763.25;;;10.41;79.57
73338;BME280;61575;49.908;35.556;2022-09-24T17:14:01;98763.19;;;10.34;79.64
73338;BME280;61575;49.908;35.556;2022-09-24T17:17:04;98756.41;;;10.23;80.08
73338;BME280;61575;49.908;35.556;2022-09-24T17:20:09;98761.09;;;10.21;80.12
73338;BME280;61575;49.908;35.556;2022-09-24T17:23:12;98756.25;;;10.17;80.24
73338;BME280;61575;49.908;35.556;2022-09-24T17:26:18;98765.19;;;10.09;80.48
73338;BME280;61575;49.908;35.556;2022-09-24T17:29:24;98763.50;;;10.08;80.48
73338;BME280;61575;49.908;35.556;2022-09-24T17:32:32;98756.84;;;10.04;80.54
73338;BME280;61575;49.908;35.556;2022-09-24T17:35:36;98763.41;;;10.01;80.60
73338;BME280;61575;49.908;35.556;2022-09-24T17:38:41;98769.47;;;9.95;80.91
73338;BME280;61575;49.908;35.556;2022-09-24T17:41:43;98771.66;;;9.92;81.01
73338;BME280;61575;49.908;35.556;2022-09-24T17:44:46;98774.44;;;9.76;81.56
73338;BME280;61575;49.908;35.556;2022-09-24T17:47:52;98771.22;;;9.80;81.20
73338;BME280;61575;49.908;35.556;2022-09-24T17:51:00;98778.91;;;9.83;81.03
73338;BME280;61575;49.908;35.556;2022-09-24T17:54:10;98775.63;;;9.73;81.66
73338;BME280;61575;49.908;35.556;2022-09-24T17:57:16;98775.63;;;9.73;81.47
73338;BME280;61575;49.908;35.556;2022-09-24T18:00:18;98773.94;;;9.72;81.43
73338;BME280;61575;49.908;35.556;2022-09-24T18:03:23;98769.59;;;9.71;81.50
73338;BME280;61575;49.908;35.556;2022-09-24T18:06:34;98772.94;;;9.73;81.67
73338;BME280;61575;49.908;35.556;2022-09-24T18:09:46;98774.28;;;9.69;82.20
73338;BME280;61575;49.908;35.556;2022-09-24T18:13:05;98772.28;;;9.71;82.09
73338;BME280;61575;49.908;35.556;2022-09-24T18:16:13;98767.59;;;9.73;82.30
73338;BME280;61575;49.908;35.556;2022-09-24T18:19:17;98773.25;;;9.78;82.37
73338;BME280;61575;49.908;35.556;2022-09-24T18:22:26;98769.56;;;9.79;82.49
73338;BME280;61575;49.908;35.556;2022-09-24T18:25:31;98756.47;;;9.84;82.46
73338;BME280;61575;49.908;35.556;2022-09-24T18:28:39;98760.16;;;9.83;82.49
73338;BME280;61575;49.908;35.556;2022-09-24T18:31:43;98767.19;;;9.84;82.45
73338;BME280;61575;49.908;35.556;2022-09-24T18:34:48;98761.16;;;9.82;82.43
73338;BME280;61575;49.908;35.556;2022-09-24T18:37:58;98764.19;;;9.79;82.46
73338;BME280;61575;49.908;35.556;2022-09-24T18:41:08;98755.88;;;9.74;82.75
73338;BME280;61575;49.908;35.556;2022-09-24T18:44:13;98764.25;;;9.71;82.83
73338;BME280;61575;49.908;35.556;2022-09-24T18:47:16;98766.63;;;9.66;83.15
73338;BME280;61575;49.908;35.556;2022-09-24T18:50:21;98758.25;;;9.69;83.02
73338;BME280;61575;49.908;35.556;2022-09-24T18:53:43;98750.38;;;9.67;83.21
73338;BME280;61575;49.908;35.556;2022-09-24T18:56:47;98750.38;;;9.67;82.96
73338;BME280;61575;49.908;35.556;2022-09-24T18:59:51;98751.75;;;9.63;83.35
73338;BME280;61575;49.908;35.556;2022-09-24T19:02:56;98744.19;;;9.67;83.08
73338;BME280;61575;49.908;35.556;2022-09-24T19:06:04;98747.56;;;9.61;nan
73338;BME280;61575;49.908;35.556;2022-09-24T19:09:10;98752.44;;;9.57;83.31
73338;BME280;61575;49.908;35.556;2022-09-24T19:12:19;98750.59;;;9.58;83.24
73338;BME280;61575;49.908;35.556;2022-09-24T19:15:22;98755.13;;;9.57;83.07
73338;BME280;61575;49.908;35.556;2022-09-24T19:18:27;98756.31;;;9.55;83.24
73338;BME280;61575;49.908;35.556;2022-09-24T19:21:29;98754.63;;;9.54;83.19
73338;BME280;61575;49.908;35.556;2022-09-24T19:24:32;98754.16;;;9.50;83.25
73338;BME280;61575;49.908;35.556;2022-09-24T19:27:34;98755.69;;;9.45;83.28
73338;BME280;61575;49.908;35.556;2022-09-24T19:30:38;98757.69;;;9.43;83.49
73338;BME280;61575;49.908;35.556;2022-09-24T19:33:42;98759.72;;;9.40;83.56
73338;BME280;61575;49.908;35.556;2022-09-24T19:36:44;98755.91;;;9.35;84.22
73338;BME280;61575;49.908;35.556;2022-09-24T19:39:46;98753.88;;;9.37;83.81
73338;BME280;61575;49.908;35.556;2022-09-24T19:42:48;98758.41;;;9.36;83.73
73338;BME280;61575;49.908;35.556;2022-09-24T19:45:57;98764.78;;;9.27;84.67
73338;BME280;61575;49.908;35.556;2022-09-24T19:49:01;98758.91;;;9.32;84.59
73338;BME280;61575;49.908;35.556;2022-09-24T19:52:06;98751.38;;;9.35;84.58
73338;BME280;61575;49.908;35.556;2022-09-24T19:55:08;98752.22;;;9.36;84.70
73338;BME280;61575;49.908;35.556;2022-09-24T19:58:18;98757.88;;;9.41;84.52
73338;BME280;61575;49.908;35.556;2022-09-24T20:01:27;98757.53;;;9.44;84.47
73338;BME280;61575;49.908;35.556;2022-09-24T20:04:45;98751.00;;;9.47;84.61
73338;BME280;61575;49.908;35.556;2022-09-24T20:07:51;98749.69;;;9.43;84.85